sensor_id;sensor_type;location;lat;lon;timestamp;P1;durP1;ratioP1;P2;durP2;ratioP2
13295;SDS011;64850;60.390;-1.374;2022-11-27T00:01:22;49.50;;;9.27;;
13295;SDS011;64850;60.390;-1.374;2022-11-27T00:03:50;49.22;;;9.07;;
13295;SDS011;64850;60.390;-1.374;2022-11-27T00:06:18;48.42;;;10.75;;
13295;SDS011;64850;60.390;-1.374;2022-11-27T00:08:47;42.67;;;9.05;;
13295;SDS011;64850;60.390;-1.374;2022-11-27T00:11:16;48.88;;;9.35;;
13295;SDS011;64850;60.390;-1.374;2022-11-27T00:13:44;44.33;;;9.73;;
13295;SDS011;64850;60.390;-1.374;2022-11-27T00:16:11;39.72;;;8.00;;
13295;SDS011;64850;60.390;-1.374;2022-11-27T00:18:38;43.30;;;8.95;;
13295;SDS011;64850;60.390;-1.374;2022-11-27T00:21:05;40.35;;;8.32;;
13295;SDS011;64850;60.390;-1.374;2022-11-27T00:23:33;52.25;;;8.55;;
13295;SDS011;64850;60.390;-1.374;2022-11-27T00:25:59;41.28;;;9.13;;
13295;SDS011;64850;60.390;-1.374;2022-11-27T00:28:29;48.70;;;8.73;;
13295;SDS011;64850;60.390;-1.374;2022-11-27T00:30:59;45.50;;;8.50;;
13295;SDS011;64850;60.390;-1.374;2022-11-27T00:33:46;45.88;;;9.60;;
13295;SDS011;64850;60.390;-1.374;2022-11-27T00:36:13;50.63;;;10.07;;
13295;SDS011;64850;60.390;-1.374;2022-11-27T00:38:40;43.83;;;9.68;;
13295;SDS011;64850;60.390;-1.374;2022-11-27T00:43:39;43.53;;;9.38;;
13295;SDS011;64850;60.390;-1.374;2022-11-27T00:46:05;60.97;;;9.30;;
13295;SDS011;64850;60.390;-1.374;2022-11-27T00:48:31;62.40;;;10.32;;
13295;SDS011;64850;60.390;-1.374;2022-11-27T00:50:58;47.67;;;10.27;;
13295;SDS011;64850;60.390;-1.374;2022-11-27T00:53:25;53.22;;;11.07;;
13295;SDS011;64850;60.390;-1.374;2022-11-27T00:55:52;44.13;;;9.02;;
13295;SDS011;64850;60.390;-1.374;2022-11-27T00:58:19;53.80;;;9.93;;
13295;SDS011;64850;60.390;-1.374;2022-11-27T01:00:46;50.05;;;9.45;;
13295;SDS011;64850;60.390;-1.374;2022-11-27T01:03:23;38.40;;;8.50;;
13295;SDS011;64850;60.390;-1.374;2022-11-27T01:05:49;46.63;;;9.55;;
13295;SDS011;64850;60.390;-1.374;2022-11-27T01:08:15;47.70;;;9.38;;
13295;SDS011;64850;60.390;-1.374;2022-11-27T01:10:49;41.10;;;8.95;;
13295;SDS011;64850;60.390;-1.374;2022-11-27T01:13:16;47.75;;;9.10;;
13295;SDS011;64850;60.390;-1.374;2022-11-27T01:15:43;41.08;;;8.55;;
13295;SDS011;64850;60.390;-1.374;2022-11-27T01:18:09;41.50;;;8.05;;
13295;SDS011;64850;60.390;-1.374;2022-11-27T01:20:39;33.58;;;7.32;;
13295;SDS011;64850;60.390;-1.374;2022-11-27T01:23:07;36.55;;;8.45;;
13295;SDS011;64850;60.390;-1.374;2022-11-27T01:25:34;35.10;;;7.28;;
13295;SDS011;64850;60.390;-1.374;2022-11-27T01:28:00;37.90;;;7.55;;
13295;SDS011;64850;60.390;-1.374;2022-11-27T01:30:28;31.80;;;7.90;;
13295;SDS011;64850;60.390;-1.374;2022-11-27T01:32:54;39.63;;;8.52;;
13295;SDS011;64850;60.390;-1.374;2022-11-27T01:35:20;47.58;;;9.07;;
13295;SDS011;64850;60.390;-1.374;2022-11-27T01:37:46;38.97;;;8.13;;
13295;SDS011;64850;60.390;-1.374;2022-11-27T01:40:12;46.03;;;8.93;;
13295;SDS011;64850;60.390;-1.374;2022-11-27T01:42:38;50.75;;;8.57;;
13295;SDS011;64850;60.390;-1.374;2022-11-27T01:45:04;51.15;;;9.57;;
13295;SDS011;64850;60.390;-1.374;2022-11-27T01:47:36;50.05;;;9.68;;
13295;SDS011;64850;60.390;-1.374;2022-11-27T01:50:17;43.60;;;8.27;;
13295;SDS011;64850;60.390;-1.374;2022-11-27T01:52:47;39.58;;;8.63;;
13295;SDS011;64850;60.390;-1.374;2022-11-27T01:55:25;42.30;;;7.25;;
13295;SDS011;64850;60.390;-1.374;2022-11-27T01:57:59;35.33;;;7.65;;
13295;SDS011;64850;60.390;-1.374;2022-11-27T02:00:29;37.33;;;6.60;;
13295;SDS011;64850;60.390;-1.374;2022-11-27T02:02:55;30.75;;;6.75;;
13295;SDS011;64850;60.390;-1.374;2022-11-27T02:05:25;28.75;;;5.95;;
13295;SDS011;64850;60.390;-1.374;2022-11-27T02:07:52;37.80;;;6.78;;
13295;SDS011;64850;60.390;-1.374;2022-11-27T02:10:20;28.27;;;6.85;;
13295;SDS011;64850;60.390;-1.374;2022-11-27T02:13:00;27.17;;;5.45;;
13295;SDS011;64850;60.390;-1.374;2022-11-27T02:15:42;24.52;;;5.32;;
13295;SDS011;64850;60.390;-1.374;2022-11-27T02:31:50;25.02;;;5.15;;
13295;SDS011;64850;60.390;-1.374;2022-11-27T02:34:34;15.65;;;4.72;;
13295;SDS011;64850;60.390;-1.374;2022-11-27T02:37:12;34.70;;;6.05;;
13295;SDS011;64850;60.390;-1.374;2022-11-27T02:42:41;28.80;;;6.22;;
13295;SDS011;64850;60.390;-1.374;2022-11-27T02:45:27;18.30;;;4.97;;
13295;SDS011;64850;60.390;-1.374;2022-11-27T02:47:59;23.05;;;5.18;;
13295;SDS011;64850;60.390;-1.374;2022-11-27T02:50:25;17.98;;;4.18;;
13295;SDS011;64850;60.390;-1.374;2022-11-27T02:52:54;25.98;;;5.32;;
13295;SDS011;64850;60.390;-1.374;2022-11-27T02:55:26;25.58;;;5.20;;
13295;SDS011;64850;60.390;-1.374;2022-11-27T02:57:56;26.60;;;5.53;;
13295;SDS011;64850;60.390;-1.374;2022-11-27T03:00:23;34.40;;;6.22;;
13295;SDS011;64850;60.390;-1.374;2022-11-27T03:02:51;26.52;;;5.60;;
13295;SDS011;64850;60.390;-1.374;2022-11-27T03:05:22;28.70;;;5.90;;
13295;SDS011;64850;60.390;-1.374;2022-11-27T03:07:56;27.48;;;6.35;;
13295;SDS011;64850;60.390;-1.374;2022-11-27T03:10:29;20.15;;;4.03;;
13295;SDS011;64850;60.390;-1.374;2022-11-27T03:13:01;20.73;;;3.95;;
13295;SDS011;64850;60.390;-1.374;2022-11-27T03:15:29;21.85;;;4.88;;
13295;SDS011;64850;60.390;-1.374;2022-11-27T03:18:11;25.75;;;5.32;;
13295;SDS011;64850;60.390;-1.374;2022-11-27T03:20:45;22.27;;;4.88;;
13295;SDS011;64850;60.390;-1.374;2022-11-27T03:23:18;22.25;;;5.50;;
13295;SDS011;64850;60.390;-1.374;2022-11-27T03:25:44;31.65;;;6.50;;
13295;SDS011;64850;60.390;-1.374;2022-11-27T03:28:10;29.25;;;6.53;;
13295;SDS011;64850;60.390;-1.374;2022-11-27T03:30:39;29.75;;;6.47;;
13295;SDS011;64850;60.390;-1.374;2022-11-27T03:33:05;24.92;;;6.65;;
13295;SDS011;64850;60.390;-1.374;2022-11-27T03:35:31;25.23;;;5.45;;
13295;SDS011;64850;60.390;-1.374;2022-11-27T03:37:57;31.70;;;6.20;;
13295;SDS011;64850;60.390;-1.374;2022-11-27T03:40:26;32.45;;;6.50;;
13295;SDS011;64850;60.390;-1.374;2022-11-27T03:43:02;34.97;;;6.00;;
13295;SDS011;64850;60.390;-1.374;2022-11-27T03:48:37;31.90;;;5.15;;
13295;SDS011;64850;60.390;-1.374;2022-11-27T03:54:13;28.40;;;5.80;;
13295;SDS011;64850;60.390;-1.374;2022-11-27T03:56:57;27.08;;;5.57;;
13295;SDS011;64850;60.390;-1.374;2022-11-27T03:59:36;30.02;;;5.25;;
13295;SDS011;64850;60.390;-1.374;2022-11-27T04:02:04;30.40;;;5.40;;
13295;SDS011;64850;60.390;-1.374;2022-11-27T04:04:35;27.00;;;4.60;;
13295;SDS011;64850;60.390;-1.374;2022-11-27T04:07:04;21.77;;;4.93;;
13295;SDS011;64850;60.390;-1.374;2022-11-27T04:09:30;19.42;;;4.70;;
13295;SDS011;64850;60.390;-1.374;2022-11-27T04:11:56;24.60;;;4.88;;
13295;SDS011;64850;60.390;-1.374;2022-11-27T04:14:22;19.48;;;4.53;;
13295;SDS011;64850;60.390;-1.374;2022-11-27T04:16:48;21.45;;;3.78;;
13295;SDS011;64850;60.390;-1.374;2022-11-27T04:19:14;29.10;;;3.95;;
13295;SDS011;64850;60.390;-1.374;2022-11-27T04:21:39;10.35;;;2.95;;
13295;SDS011;64850;60.390;-1.374;2022-11-27T04:24:06;17.00;;;3.70;;
13295;SDS011;64850;60.390;-1.374;2022-11-27T04:26:31;15.88;;;3.55;;
13295;SDS011;64850;60.390;-1.374;2022-11-27T04:28:57;16.85;;;3.40;;
13295;SDS011;64850;60.390;-1.374;2022-11-27T04:31:23;19.85;;;3.40;;
13295;SDS011;64850;60.390;-1.374;2022-11-27T04:33:49;14.95;;;3.15;;
13295;SDS011;64850;60.390;-1.374;2022-11-27T04:36:15;13.07;;;3.05;;
13295;SDS011;64850;60.390;-1.374;2022-11-27T04:38:41;14.88;;;3.20;;
13295;SDS011;64850;60.390;-1.374;2022-11-27T04:41:07;21.65;;;4.00;;
13295;SDS011;64850;60.390;-1.374;2022-11-27T04:43:33;22.25;;;4.13;;
13295;SDS011;64850;60.390;-1.374;2022-11-27T04:45:59;25.80;;;4.90;;
13295;SDS011;64850;60.390;-1.374;2022-11-27T04:48:25;30.95;;;5.50;;
13295;SDS011;64850;60.390;-1.374;2022-11-27T04:50:53;27.75;;;4.95;;
13295;SDS011;64850;60.390;-1.374;2022-11-27T04:53:19;31.40;;;5.57;;
13295;SDS011;64850;60.390;-1.374;2022-11-27T04:55:45;37.75;;;6.88;;
13295;SDS011;64850;60.390;-1.374;2022-11-27T04:58:11;36.47;;;7.25;;
13295;SDS011;64850;60.390;-1.374;2022-11-27T05:00:37;39.42;;;7.88;;
13295;SDS011;64850;60.390;-1.374;2022-11-27T05:03:03;34.05;;;7.78;;
13295;SDS011;64850;60.390;-1.374;2022-11-27T05:05:29;45.42;;;8.80;;
13295;SDS011;64850;60.390;-1.374;2022-11-27T05:07:55;47.25;;;9.60;;
13295;SDS011;64850;60.390;-1.374;2022-11-27T05:10:21;48.55;;;9.60;;
13295;SDS011;64850;60.390;-1.374;2022-11-27T05:12:47;45.38;;;9.27;;
13295;SDS011;64850;60.390;-1.374;2022-11-27T05:15:13;52.70;;;9.85;;
13295;SDS011;64850;60.390;-1.374;2022-11-27T05:17:39;45.63;;;9.00;;
13295;SDS011;64850;60.390;-1.374;2022-11-27T05:20:05;44.47;;;8.20;;
13295;SDS011;64850;60.390;-1.374;2022-11-27T05:22:31;49.35;;;8.82;;
13295;SDS011;64850;60.390;-1.374;2022-11-27T05:24:57;47.22;;;9.35;;
13295;SDS011;64850;60.390;-1.374;2022-11-27T05:27:23;44.15;;;9.13;;
13295;SDS011;64850;60.390;-1.374;2022-11-27T05:29:49;47.90;;;9.05;;
13295;SDS011;64850;60.390;-1.374;2022-11-27T05:32:15;56.75;;;9.13;;
13295;SDS011;64850;60.390;-1.374;2022-11-27T05:34:41;57.17;;;10.88;;
13295;SDS011;64850;60.390;-1.374;2022-11-27T05:37:07;41.70;;;8.52;;
13295;SDS011;64850;60.390;-1.374;2022-11-27T05:39:33;43.88;;;9.27;;
13295;SDS011;64850;60.390;-1.374;2022-11-27T05:41:59;49.55;;;9.38;;
13295;SDS011;64850;60.390;-1.374;2022-11-27T05:44:25;40.22;;;8.93;;
13295;SDS011;64850;60.390;-1.374;2022-11-27T05:46:51;42.85;;;8.32;;
13295;SDS011;64850;60.390;-1.374;2022-11-27T05:49:17;38.88;;;7.40;;
13295;SDS011;64850;60.390;-1.374;2022-11-27T05:51:43;41.17;;;8.45;;
13295;SDS011;64850;60.390;-1.374;2022-11-27T05:54:09;40.22;;;8.45;;
13295;SDS011;64850;60.390;-1.374;2022-11-27T05:56:37;43.35;;;8.00;;
13295;SDS011;64850;60.390;-1.374;2022-11-27T05:59:03;48.20;;;8.57;;
13295;SDS011;64850;60.390;-1.374;2022-11-27T06:01:29;43.60;;;7.82;;
13295;SDS011;64850;60.390;-1.374;2022-11-27T06:03:55;46.55;;;9.10;;
13295;SDS011;64850;60.390;-1.374;2022-11-27T06:06:21;39.33;;;7.75;;
13295;SDS011;64850;60.390;-1.374;2022-11-27T06:08:47;51.10;;;9.20;;
13295;SDS011;64850;60.390;-1.374;2022-11-27T06:11:18;46.63;;;8.63;;
13295;SDS011;64850;60.390;-1.374;2022-11-27T06:13:46;47.22;;;8.68;;
13295;SDS011;64850;60.390;-1.374;2022-11-27T06:16:14;41.50;;;7.85;;
13295;SDS011;64850;60.390;-1.374;2022-11-27T06:18:42;44.38;;;8.07;;
13295;SDS011;64850;60.390;-1.374;2022-11-27T06:21:09;46.47;;;8.35;;
13295;SDS011;64850;60.390;-1.374;2022-11-27T06:23:37;37.85;;;8.43;;
13295;SDS011;64850;60.390;-1.374;2022-11-27T06:26:15;35.33;;;8.07;;
13295;SDS011;64850;60.390;-1.374;2022-11-27T06:28:49;38.40;;;7.47;;
13295;SDS011;64850;60.390;-1.374;2022-11-27T06:31:16;36.70;;;7.15;;
13295;SDS011;64850;60.390;-1.374;2022-11-27T06:33:45;32.72;;;6.35;;
13295;SDS011;64850;60.390;-1.374;2022-11-27T06:36:12;37.50;;;7.72;;
13295;SDS011;64850;60.390;-1.374;2022-11-27T06:38:38;36.20;;;7.15;;
13295;SDS011;64850;60.390;-1.374;2022-11-27T06:41:05;43.33;;;8.45;;
13295;SDS011;64850;60.390;-1.374;2022-11-27T06:43:36;38.55;;;7.40;;
13295;SDS011;64850;60.390;-1.374;2022-11-27T06:46:06;36.47;;;7.38;;
13295;SDS011;64850;60.390;-1.374;2022-11-27T06:48:35;38.53;;;6.38;;
13295;SDS011;64850;60.390;-1.374;2022-11-27T06:51:04;37.70;;;6.95;;
13295;SDS011;64850;60.390;-1.374;2022-11-27T06:53:32;42.67;;;6.95;;
13295;SDS011;64850;60.390;-1.374;2022-11-27T06:56:06;36.58;;;6.35;;
13295;SDS011;64850;60.390;-1.374;2022-11-27T06:58:40;36.97;;;6.65;;
13295;SDS011;64850;60.390;-1.374;2022-11-27T07:01:07;34.50;;;6.68;;
13295;SDS011;64850;60.390;-1.374;2022-11-27T07:03:36;34.85;;;6.30;;
13295;SDS011;64850;60.390;-1.374;2022-11-27T07:06:06;35.65;;;6.20;;
13295;SDS011;64850;60.390;-1.374;2022-11-27T07:08:34;35.63;;;6.53;;
13295;SDS011;64850;60.390;-1.374;2022-11-27T07:11:01;31.52;;;7.28;;
13295;SDS011;64850;60.390;-1.374;2022-11-27T07:13:28;39.60;;;6.47;;
13295;SDS011;64850;60.390;-1.374;2022-11-27T07:15:54;32.10;;;5.80;;
13295;SDS011;64850;60.390;-1.374;2022-11-27T07:18:23;29.70;;;6.18;;
13295;SDS011;64850;60.390;-1.374;2022-11-27T07:20:52;34.53;;;6.88;;
13295;SDS011;64850;60.390;-1.374;2022-11-27T07:23:19;32.38;;;6.03;;
13295;SDS011;64850;60.390;-1.374;2022-11-27T07:25:45;29.90;;;6.00;;
13295;SDS011;64850;60.390;-1.374;2022-11-27T07:28:11;29.83;;;5.90;;
13295;SDS011;64850;60.390;-1.374;2022-11-27T07:30:37;31.88;;;6.38;;
13295;SDS011;64850;60.390;-1.374;2022-11-27T07:33:04;28.67;;;5.55;;
13295;SDS011;64850;60.390;-1.374;2022-11-27T07:35:30;29.45;;;6.60;;
13295;SDS011;64850;60.390;-1.374;2022-11-27T07:37:56;32.53;;;5.63;;
13295;SDS011;64850;60.390;-1.374;2022-11-27T07:40:22;26.30;;;5.03;;
13295;SDS011;64850;60.390;-1.374;2022-11-27T07:42:48;26.30;;;6.57;;
13295;SDS011;64850;60.390;-1.374;2022-11-27T07:45:13;26.10;;;4.88;;
13295;SDS011;64850;60.390;-1.374;2022-11-27T07:47:39;22.98;;;5.32;;
13295;SDS011;64850;60.390;-1.374;2022-11-27T07:50:06;25.83;;;6.03;;
13295;SDS011;64850;60.390;-1.374;2022-11-27T07:52:33;32.65;;;6.75;;
13295;SDS011;64850;60.390;-1.374;2022-11-27T07:55:03;23.40;;;4.78;;
13295;SDS011;64850;60.390;-1.374;2022-11-27T07:57:29;28.10;;;4.70;;
13295;SDS011;64850;60.390;-1.374;2022-11-27T07:59:55;19.88;;;4.43;;
13295;SDS011;64850;60.390;-1.374;2022-11-27T08:02:21;19.40;;;4.22;;
13295;SDS011;64850;60.390;-1.374;2022-11-27T08:04:47;23.52;;;4.97;;
13295;SDS011;64850;60.390;-1.374;2022-11-27T08:07:12;22.50;;;3.78;;
13295;SDS011;64850;60.390;-1.374;2022-11-27T08:09:38;21.35;;;4.50;;
13295;SDS011;64850;60.390;-1.374;2022-11-27T08:12:04;24.52;;;4.35;;
13295;SDS011;64850;60.390;-1.374;2022-11-27T08:14:31;22.90;;;4.43;;
13295;SDS011;64850;60.390;-1.374;2022-11-27T08:16:57;24.58;;;4.68;;
13295;SDS011;64850;60.390;-1.374;2022-11-27T08:19:23;28.15;;;5.57;;
13295;SDS011;64850;60.390;-1.374;2022-11-27T08:21:49;25.30;;;4.97;;
13295;SDS011;64850;60.390;-1.374;2022-11-27T08:24:15;26.08;;;5.00;;
13295;SDS011;64850;60.390;-1.374;2022-11-27T08:26:41;25.33;;;4.70;;
13295;SDS011;64850;60.390;-1.374;2022-11-27T08:29:09;30.88;;;5.20;;
13295;SDS011;64850;60.390;-1.374;2022-11-27T08:31:36;21.88;;;5.30;;
13295;SDS011;64850;60.390;-1.374;2022-11-27T08:34:02;29.23;;;4.93;;
13295;SDS011;64850;60.390;-1.374;2022-11-27T08:36:28;21.60;;;4.45;;
13295;SDS011;64850;60.390;-1.374;2022-11-27T08:38:54;25.40;;;5.07;;
13295;SDS011;64850;60.390;-1.374;2022-11-27T08:41:20;20.20;;;4.35;;
13295;SDS011;64850;60.390;-1.374;2022-11-27T08:43:46;23.27;;;5.43;;
13295;SDS011;64850;60.390;-1.374;2022-11-27T08:46:12;19.13;;;4.78;;
13295;SDS011;64850;60.390;-1.374;2022-11-27T08:48:38;25.35;;;4.60;;
13295;SDS011;64850;60.390;-1.374;2022-11-27T08:51:06;19.38;;;5.13;;
13295;SDS011;64850;60.390;-1.374;2022-11-27T08:53:35;27.38;;;5.55;;
13295;SDS011;64850;60.390;-1.374;2022-11-27T08:56:08;18.75;;;4.63;;
13295;SDS011;64850;60.390;-1.374;2022-11-27T08:58:45;20.77;;;4.50;;
13295;SDS011;64850;60.390;-1.374;2022-11-27T09:01:15;23.10;;;5.10;;
13295;SDS011;64850;60.390;-1.374;2022-11-27T09:03:49;24.95;;;4.57;;
13295;SDS011;64850;60.390;-1.374;2022-11-27T09:06:16;23.48;;;4.50;;
13295;SDS011;64850;60.390;-1.374;2022-11-27T09:08:47;19.48;;;3.97;;
13295;SDS011;64850;60.390;-1.374;2022-11-27T09:11:14;19.40;;;4.30;;
13295;SDS011;64850;60.390;-1.374;2022-11-27T09:13:42;25.05;;;5.13;;
13295;SDS011;64850;60.390;-1.374;2022-11-27T09:16:09;25.30;;;5.22;;
13295;SDS011;64850;60.390;-1.374;2022-11-27T09:18:37;26.88;;;6.05;;
13295;SDS011;64850;60.390;-1.374;2022-11-27T09:21:08;33.20;;;5.53;;
13295;SDS011;64850;60.390;-1.374;2022-11-27T09:23:35;25.33;;;5.00;;
13295;SDS011;64850;60.390;-1.374;2022-11-27T09:26:02;32.88;;;5.53;;
13295;SDS011;64850;60.390;-1.374;2022-11-27T09:28:32;31.05;;;5.80;;
13295;SDS011;64850;60.390;-1.374;2022-11-27T09:31:00;24.85;;;5.22;;
13295;SDS011;64850;60.390;-1.374;2022-11-27T09:33:28;33.85;;;5.88;;
13295;SDS011;64850;60.390;-1.374;2022-11-27T09:35:55;30.48;;;6.00;;
13295;SDS011;64850;60.390;-1.374;2022-11-27T09:38:21;30.02;;;6.20;;
13295;SDS011;64850;60.390;-1.374;2022-11-27T09:40:51;22.77;;;5.28;;
13295;SDS011;64850;60.390;-1.374;2022-11-27T09:43:23;34.03;;;7.07;;
13295;SDS011;64850;60.390;-1.374;2022-11-27T09:45:55;35.42;;;6.32;;
13295;SDS011;64850;60.390;-1.374;2022-11-27T09:48:39;31.60;;;6.00;;
13295;SDS011;64850;60.390;-1.374;2022-11-27T09:51:14;35.92;;;6.75;;
13295;SDS011;64850;60.390;-1.374;2022-11-27T09:54:15;35.65;;;6.25;;
13295;SDS011;64850;60.390;-1.374;2022-11-27T09:56:46;28.40;;;5.90;;
13295;SDS011;64850;60.390;-1.374;2022-11-27T09:59:16;20.52;;;4.90;;
13295;SDS011;64850;60.390;-1.374;2022-11-27T10:01:44;19.95;;;5.60;;
13295;SDS011;64850;60.390;-1.374;2022-11-27T10:04:14;29.42;;;6.05;;
13295;SDS011;64850;60.390;-1.374;2022-11-27T10:17:54;25.10;;;5.70;;
13295;SDS011;64850;60.390;-1.374;2022-11-27T10:20:36;26.00;;;5.72;;
13295;SDS011;64850;60.390;-1.374;2022-11-27T10:23:20;26.63;;;5.85;;
13295;SDS011;64850;60.390;-1.374;2022-11-27T10:26:10;24.50;;;5.22;;
13295;SDS011;64850;60.390;-1.374;2022-11-27T10:28:45;31.40;;;6.03;;
13295;SDS011;64850;60.390;-1.374;2022-11-27T10:31:54;24.13;;;5.68;;
13295;SDS011;64850;60.390;-1.374;2022-11-27T10:37:25;30.30;;;6.28;;
13295;SDS011;64850;60.390;-1.374;2022-11-27T10:40:00;25.08;;;5.20;;
13295;SDS011;64850;60.390;-1.374;2022-11-27T10:45:37;24.40;;;5.43;;
13295;SDS011;64850;60.390;-1.374;2022-11-27T10:48:04;24.58;;;5.57;;
13295;SDS011;64850;60.390;-1.374;2022-11-27T10:50:30;22.90;;;5.13;;
13295;SDS011;64850;60.390;-1.374;2022-11-27T10:53:05;21.27;;;4.30;;
13295;SDS011;64850;60.390;-1.374;2022-11-27T11:01:26;19.08;;;4.03;;
13295;SDS011;64850;60.390;-1.374;2022-11-27T11:04:05;20.27;;;4.57;;
13295;SDS011;64850;60.390;-1.374;2022-11-27T11:06:39;24.08;;;4.65;;
13295;SDS011;64850;60.390;-1.374;2022-11-27T11:09:15;28.40;;;5.32;;
13295;SDS011;64850;60.390;-1.374;2022-11-27T11:12:15;21.38;;;4.80;;
13295;SDS011;64850;60.390;-1.374;2022-11-27T11:14:58;20.15;;;4.97;;
13295;SDS011;64850;60.390;-1.374;2022-11-27T11:17:25;21.25;;;4.70;;
13295;SDS011;64850;60.390;-1.374;2022-11-27T11:19:58;20.70;;;4.75;;
13295;SDS011;64850;60.390;-1.374;2022-11-27T11:22:24;20.30;;;5.10;;
13295;SDS011;64850;60.390;-1.374;2022-11-27T11:24:53;31.05;;;5.15;;
13295;SDS011;64850;60.390;-1.374;2022-11-27T11:27:27;30.60;;;6.03;;
13295;SDS011;64850;60.390;-1.374;2022-11-27T11:29:59;29.63;;;5.10;;
13295;SDS011;64850;60.390;-1.374;2022-11-27T11:32:29;19.35;;;5.00;;
13295;SDS011;64850;60.390;-1.374;2022-11-27T11:37:48;29.17;;;6.63;;
13295;SDS011;64850;60.390;-1.374;2022-11-27T11:42:53;22.50;;;5.55;;
13295;SDS011;64850;60.390;-1.374;2022-11-27T11:45:21;25.60;;;4.93;;
13295;SDS011;64850;60.390;-1.374;2022-11-27T11:47:50;21.27;;;5.25;;
13295;SDS011;64850;60.390;-1.374;2022-11-27T11:53:13;21.50;;;4.97;;
13295;SDS011;64850;60.390;-1.374;2022-11-27T11:58:30;27.48;;;6.43;;
13295;SDS011;64850;60.390;-1.374;2022-11-27T12:03:57;23.30;;;5.43;;
13295;SDS011;64850;60.390;-1.374;2022-11-27T12:06:29;20.98;;;5.72;;
13295;SDS011;64850;60.390;-1.374;2022-11-27T12:11:39;25.88;;;5.38;;
13295;SDS011;64850;60.390;-1.374;2022-11-27T12:30:57;28.98;;;5.55;;
13295;SDS011;64850;60.390;-1.374;2022-11-27T12:43:54;21.13;;;5.18;;
13295;SDS011;64850;60.390;-1.374;2022-11-27T12:49:20;35.10;;;5.68;;
13295;SDS011;64850;60.390;-1.374;2022-11-27T12:54:39;21.00;;;5.40;;
13295;SDS011;64850;60.390;-1.374;2022-11-27T12:57:17;23.63;;;5.47;;
13295;SDS011;64850;60.390;-1.374;2022-11-27T12:59:55;29.30;;;5.75;;
13295;SDS011;64850;60.390;-1.374;2022-11-27T13:05:18;22.08;;;4.78;;
13295;SDS011;64850;60.390;-1.374;2022-11-27T13:10:42;22.85;;;6.18;;
13295;SDS011;64850;60.390;-1.374;2022-11-27T13:13:37;28.92;;;5.18;;
13295;SDS011;64850;60.390;-1.374;2022-11-27T13:16:11;23.02;;;4.97;;
13295;SDS011;64850;60.390;-1.374;2022-11-27T13:21:52;22.25;;;5.80;;
13295;SDS011;64850;60.390;-1.374;2022-11-27T13:24:20;32.47;;;5.38;;
13295;SDS011;64850;60.390;-1.374;2022-11-27T13:31:59;22.63;;;4.93;;
13295;SDS011;64850;60.390;-1.374;2022-11-27T13:34:27;16.20;;;4.20;;
13295;SDS011;64850;60.390;-1.374;2022-11-27T13:37:04;21.63;;;4.28;;
13295;SDS011;64850;60.390;-1.374;2022-11-27T13:39:36;16.13;;;3.65;;
13295;SDS011;64850;60.390;-1.374;2022-11-27T13:42:06;23.65;;;5.05;;
13295;SDS011;64850;60.390;-1.374;2022-11-27T13:44:38;16.63;;;4.78;;
13295;SDS011;64850;60.390;-1.374;2022-11-27T13:47:14;21.77;;;4.93;;
13295;SDS011;64850;60.390;-1.374;2022-11-27T13:49:43;19.88;;;4.65;;
13295;SDS011;64850;60.390;-1.374;2022-11-27T13:52:22;17.50;;;4.03;;
13295;SDS011;64850;60.390;-1.374;2022-11-27T13:58:31;19.50;;;3.85;;
13295;SDS011;64850;60.390;-1.374;2022-11-27T14:01:16;16.20;;;3.65;;
13295;SDS011;64850;60.390;-1.374;2022-11-27T14:03:44;16.83;;;4.03;;
13295;SDS011;64850;60.390;-1.374;2022-11-27T14:06:19;17.15;;;4.15;;
13295;SDS011;64850;60.390;-1.374;2022-11-27T14:08:58;23.83;;;4.55;;
13295;SDS011;64850;60.390;-1.374;2022-11-27T14:11:59;20.02;;;4.10;;
13295;SDS011;64850;60.390;-1.374;2022-11-27T14:14:19;17.55;;;4.57;;
13295;SDS011;64850;60.390;-1.374;2022-11-27T14:16:59;18.50;;;4.60;;
13295;SDS011;64850;60.390;-1.374;2022-11-27T14:19:57;18.02;;;4.10;;
13295;SDS011;64850;60.390;-1.374;2022-11-27T14:25:17;25.73;;;6.55;;
13295;SDS011;64850;60.390;-1.374;2022-11-27T14:28:13;18.05;;;4.45;;
13295;SDS011;64850;60.390;-1.374;2022-11-27T14:33:16;25.40;;;5.63;;
13295;SDS011;64850;60.390;-1.374;2022-11-27T14:35:51;23.02;;;4.47;;
13295;SDS011;64850;60.390;-1.374;2022-11-27T14:38:19;22.20;;;4.22;;
13295;SDS011;64850;60.390;-1.374;2022-11-27T14:40:46;28.15;;;5.53;;
13295;SDS011;64850;60.390;-1.374;2022-11-27T14:43:17;23.70;;;5.28;;
13295;SDS011;64850;60.390;-1.374;2022-11-27T14:45:49;21.70;;;4.80;;
13295;SDS011;64850;60.390;-1.374;2022-11-27T14:48:22;20.13;;;4.43;;
13295;SDS011;64850;60.390;-1.374;2022-11-27T14:50:50;24.20;;;5.28;;
13295;SDS011;64850;60.390;-1.374;2022-11-27T14:53:19;25.38;;;5.65;;
13295;SDS011;64850;60.390;-1.374;2022-11-27T14:55:47;22.67;;;5.03;;
13295;SDS011;64850;60.390;-1.374;2022-11-27T14:58:32;29.27;;;5.10;;
13295;SDS011;64850;60.390;-1.374;2022-11-27T15:01:03;28.20;;;5.18;;
13295;SDS011;64850;60.390;-1.374;2022-11-27T15:03:30;28.85;;;5.53;;
13295;SDS011;64850;60.390;-1.374;2022-11-27T15:06:02;29.23;;;5.18;;
13295;SDS011;64850;60.390;-1.374;2022-11-27T15:08:32;28.55;;;5.38;;
13295;SDS011;64850;60.390;-1.374;2022-11-27T15:11:00;24.27;;;5.70;;
13295;SDS011;64850;60.390;-1.374;2022-11-27T15:13:29;38.22;;;6.43;;
13295;SDS011;64850;60.390;-1.374;2022-11-27T15:16:03;32.42;;;6.68;;
13295;SDS011;64850;60.390;-1.374;2022-11-27T15:18:31;25.17;;;5.35;;
13295;SDS011;64850;60.390;-1.374;2022-11-27T15:21:00;28.25;;;5.35;;
13295;SDS011;64850;60.390;-1.374;2022-11-27T15:23:29;27.60;;;5.50;;
13295;SDS011;64850;60.390;-1.374;2022-11-27T15:30:49;31.67;;;5.80;;
13295;SDS011;64850;60.390;-1.374;2022-11-27T15:33:28;27.63;;;5.80;;
13295;SDS011;64850;60.390;-1.374;2022-11-27T15:36:11;25.17;;;5.75;;
13295;SDS011;64850;60.390;-1.374;2022-11-27T15:38:45;30.70;;;5.55;;
13295;SDS011;64850;60.390;-1.374;2022-11-27T15:41:33;29.80;;;6.18;;
13295;SDS011;64850;60.390;-1.374;2022-11-27T15:43:59;29.58;;;5.28;;
13295;SDS011;64850;60.390;-1.374;2022-11-27T15:46:25;33.00;;;5.43;;
13295;SDS011;64850;60.390;-1.374;2022-11-27T15:48:56;25.17;;;4.28;;
13295;SDS011;64850;60.390;-1.374;2022-11-27T15:51:22;20.52;;;5.55;;
13295;SDS011;64850;60.390;-1.374;2022-11-27T15:53:48;28.40;;;5.32;;
13295;SDS011;64850;60.390;-1.374;2022-11-27T15:56:17;26.70;;;5.10;;
13295;SDS011;64850;60.390;-1.374;2022-11-27T15:58:43;25.25;;;4.68;;
13295;SDS011;64850;60.390;-1.374;2022-11-27T16:01:11;26.15;;;4.70;;
13295;SDS011;64850;60.390;-1.374;2022-11-27T16:03:37;24.65;;;5.05;;
13295;SDS011;64850;60.390;-1.374;2022-11-27T16:06:05;25.63;;;6.40;;
13295;SDS011;64850;60.390;-1.374;2022-11-27T16:08:32;29.33;;;5.72;;
13295;SDS011;64850;60.390;-1.374;2022-11-27T16:11:00;27.83;;;5.40;;
13295;SDS011;64850;60.390;-1.374;2022-11-27T16:13:27;21.70;;;4.75;;
13295;SDS011;64850;60.390;-1.374;2022-11-27T16:15:54;28.15;;;5.88;;
13295;SDS011;64850;60.390;-1.374;2022-11-27T16:18:24;24.55;;;4.65;;
13295;SDS011;64850;60.390;-1.374;2022-11-27T16:20:50;24.45;;;4.35;;
13295;SDS011;64850;60.390;-1.374;2022-11-27T16:23:16;23.50;;;4.75;;
13295;SDS011;64850;60.390;-1.374;2022-11-27T16:25:42;20.05;;;4.57;;
13295;SDS011;64850;60.390;-1.374;2022-11-27T16:28:07;24.25;;;5.30;;
13295;SDS011;64850;60.390;-1.374;2022-11-27T16:30:33;24.77;;;5.28;;
13295;SDS011;64850;60.390;-1.374;2022-11-27T16:32:59;21.83;;;4.75;;
13295;SDS011;64850;60.390;-1.374;2022-11-27T16:35:26;27.42;;;4.70;;
13295;SDS011;64850;60.390;-1.374;2022-11-27T16:37:52;31.67;;;5.40;;
13295;SDS011;64850;60.390;-1.374;2022-11-27T16:40:18;22.15;;;4.80;;
13295;SDS011;64850;60.390;-1.374;2022-11-27T16:42:47;31.33;;;5.82;;